sensor_id;sensor_type;location;lat;lon;timestamp;P1;durP1;ratioP1;P2;durP2;ratioP2
7110;SDS011;3597;42.650;23.386;2024-03-02T00:00:06;72.15;;;39.17;;
7110;SDS011;3597;42.650;23.386;2024-03-02T00:02:42;102.65;;;41.00;;
7110;SDS011;3597;42.650;23.386;2024-03-02T00:05:09;99.57;;;38.38;;
7110;SDS011;3597;42.650;23.386;2024-03-02T00:07:37;97.13;;;37.90;;
7110;SDS011;3597;42.650;23.386;2024-03-02T00:10:07;80.40;;;35.60;;
7110;SDS011;3597;42.650;23.386;2024-03-02T00:12:36;80.03;;;35.20;;
7110;SDS011;3597;42.650;23.386;2024-03-02T00:15:04;134.20;;;38.42;;
7110;SDS011;3597;42.650;23.386;2024-03-02T00:17:53;54.08;;;29.17;;
7110;SDS011;3597;42.650;23.386;2024-03-02T00:20:21;55.72;;;28.63;;
7110;SDS011;3597;42.650;23.386;2024-03-02T00:22:48;87.05;;;33.58;;
7110;SDS011;3597;42.650;23.386;2024-03-02T00:25:15;132.95;;;35.08;;
7110;SDS011;3597;42.650;23.386;2024-03-02T00:27:40;174.15;;;39.97;;
7110;SDS011;3597;42.650;23.386;2024-03-02T00:30:17;82.88;;;33.10;;
7110;SDS011;3597;42.650;23.386;2024-03-02T00:33:22;150.57;;;36.28;;
7110;SDS011;3597;42.650;23.386;2024-03-02T00:35:48;171.98;;;39.97;;
7110;SDS011;3597;42.650;23.386;2024-03-02T00:38:15;250.65;;;48.28;;
7110;SDS011;3597;42.650;23.386;2024-03-02T00:40:44;149.38;;;36.92;;
7110;SDS011;3597;42.650;23.386;2024-03-02T00:45:54;293.92;;;52.97;;
7110;SDS011;3597;42.650;23.386;2024-03-02T00:48:20;150.05;;;39.00;;
7110;SDS011;3597;42.650;23.386;2024-03-02T00:50:46;87.65;;;33.15;;
7110;SDS011;3597;42.650;23.386;2024-03-02T00:53:17;85.28;;;32.08;;
7110;SDS011;3597;42.650;23.386;2024-03-02T00:55:47;104.13;;;33.67;;
7110;SDS011;3597;42.650;23.386;2024-03-02T00:58:13;83.90;;;34.55;;
7110;SDS011;3597;42.650;23.386;2024-03-02T01:00:39;83.32;;;31.42;;
7110;SDS011;3597;42.650;23.386;2024-03-02T01:03:04;139.20;;;36.75;;
7110;SDS011;3597;42.650;23.386;2024-03-02T01:05:30;89.72;;;34.03;;
7110;SDS011;3597;42.650;23.386;2024-03-02T01:07:56;98.55;;;34.60;;
7110;SDS011;3597;42.650;23.386;2024-03-02T01:10:21;61.60;;;29.23;;
7110;SDS011;3597;42.650;23.386;2024-03-02T01:12:47;48.28;;;26.60;;
7110;SDS011;3597;42.650;23.386;2024-03-02T01:15:13;45.75;;;29.13;;
7110;SDS011;3597;42.650;23.386;2024-03-02T01:17:38;50.67;;;28.38;;
7110;SDS011;3597;42.650;23.386;2024-03-02T01:20:04;50.58;;;27.45;;
7110;SDS011;3597;42.650;23.386;2024-03-02T01:22:33;49.50;;;27.30;;
7110;SDS011;3597;42.650;23.386;2024-03-02T01:24:59;45.22;;;25.98;;
7110;SDS011;3597;42.650;23.386;2024-03-02T01:27:24;84.32;;;30.90;;
7110;SDS011;3597;42.650;23.386;2024-03-02T01:29:50;46.72;;;28.60;;
7110;SDS011;3597;42.650;23.386;2024-03-02T01:32:15;52.65;;;27.88;;
7110;SDS011;3597;42.650;23.386;2024-03-02T01:34:41;46.15;;;27.67;;
7110;SDS011;3597;42.650;23.386;2024-03-02T01:37:06;95.95;;;31.33;;
7110;SDS011;3597;42.650;23.386;2024-03-02T01:39:32;143.80;;;35.65;;
7110;SDS011;3597;42.650;23.386;2024-03-02T01:41:57;123.68;;;34.00;;
7110;SDS011;3597;42.650;23.386;2024-03-02T01:44:23;105.47;;;35.38;;
7110;SDS011;3597;42.650;23.386;2024-03-02T01:46:49;111.10;;;33.97;;
7110;SDS011;3597;42.650;23.386;2024-03-02T01:49:16;119.10;;;33.35;;
7110;SDS011;3597;42.650;23.386;2024-03-02T01:51:41;50.95;;;25.58;;
7110;SDS011;3597;42.650;23.386;2024-03-02T01:54:07;101.68;;;31.10;;
7110;SDS011;3597;42.650;23.386;2024-03-02T01:56:32;159.25;;;33.65;;
7110;SDS011;3597;42.650;23.386;2024-03-02T01:58:58;46.83;;;28.33;;
7110;SDS011;3597;42.650;23.386;2024-03-02T02:01:24;64.43;;;26.13;;
7110;SDS011;3597;42.650;23.386;2024-03-02T02:03:49;210.43;;;44.85;;
7110;SDS011;3597;42.650;23.386;2024-03-02T02:06:15;292.48;;;44.03;;
7110;SDS011;3597;42.650;23.386;2024-03-02T02:08:40;280.90;;;50.63;;
7110;SDS011;3597;42.650;23.386;2024-03-02T02:11:06;135.93;;;36.35;;
7110;SDS011;3597;42.650;23.386;2024-03-02T02:13:32;298.52;;;50.42;;
7110;SDS011;3597;42.650;23.386;2024-03-02T02:16:06;65.18;;;29.42;;
7110;SDS011;3597;42.650;23.386;2024-03-02T02:18:33;147.40;;;33.88;;
7110;SDS011;3597;42.650;23.386;2024-03-02T02:20:59;110.05;;;31.58;;
7110;SDS011;3597;42.650;23.386;2024-03-02T02:23:25;222.68;;;39.78;;
7110;SDS011;3597;42.650;23.386;2024-03-02T02:25:50;174.35;;;37.05;;
7110;SDS011;3597;42.650;23.386;2024-03-02T02:28:16;73.90;;;29.60;;
7110;SDS011;3597;42.650;23.386;2024-03-02T02:30:41;116.32;;;32.67;;
7110;SDS011;3597;42.650;23.386;2024-03-02T02:33:07;158.73;;;35.20;;
7110;SDS011;3597;42.650;23.386;2024-03-02T02:35:34;123.18;;;33.28;;
7110;SDS011;3597;42.650;23.386;2024-03-02T02:38:00;158.63;;;37.67;;
7110;SDS011;3597;42.650;23.386;2024-03-02T02:40:26;76.43;;;31.92;;
7110;SDS011;3597;42.650;23.386;2024-03-02T02:42:52;112.05;;;32.13;;
7110;SDS011;3597;42.650;23.386;2024-03-02T02:45:18;58.75;;;26.23;;
7110;SDS011;3597;42.650;23.386;2024-03-02T02:47:44;68.30;;;29.58;;
7110;SDS011;3597;42.650;23.386;2024-03-02T02:50:10;253.00;;;46.60;;
7110;SDS011;3597;42.650;23.386;2024-03-02T02:52:37;137.02;;;36.70;;
7110;SDS011;3597;42.650;23.386;2024-03-02T02:55:06;102.65;;;32.28;;
7110;SDS011;3597;42.650;23.386;2024-03-02T02:57:33;68.22;;;28.55;;
7110;SDS011;3597;42.650;23.386;2024-03-02T03:00:10;106.78;;;30.67;;
7110;SDS011;3597;42.650;23.386;2024-03-02T03:02:44;103.05;;;31.70;;
7110;SDS011;3597;42.650;23.386;2024-03-02T03:05:12;81.60;;;28.25;;
7110;SDS011;3597;42.650;23.386;2024-03-02T03:07:39;144.45;;;32.80;;
7110;SDS011;3597;42.650;23.386;2024-03-02T03:10:06;177.25;;;41.58;;
7110;SDS011;3597;42.650;23.386;2024-03-02T03:12:33;123.07;;;35.53;;
7110;SDS011;3597;42.650;23.386;2024-03-02T03:14:59;262.10;;;45.47;;
7110;SDS011;3597;42.650;23.386;2024-03-02T03:17:25;103.30;;;33.25;;
7110;SDS011;3597;42.650;23.386;2024-03-02T03:19:51;52.35;;;26.83;;
7110;SDS011;3597;42.650;23.386;2024-03-02T03:22:17;54.45;;;26.98;;
7110;SDS011;3597;42.650;23.386;2024-03-02T03:24:42;68.30;;;26.63;;
7110;SDS011;3597;42.650;23.386;2024-03-02T03:27:08;77.55;;;28.50;;
7110;SDS011;3597;42.650;23.386;2024-03-02T03:29:35;68.25;;;26.88;;
7110;SDS011;3597;42.650;23.386;2024-03-02T03:32:01;90.13;;;28.45;;
7110;SDS011;3597;42.650;23.386;2024-03-02T03:34:27;84.82;;;30.90;;
7110;SDS011;3597;42.650;23.386;2024-03-02T03:36:54;148.80;;;35.25;;
7110;SDS011;3597;42.650;23.386;2024-03-02T03:39:19;52.30;;;26.08;;
7110;SDS011;3597;42.650;23.386;2024-03-02T03:41:45;69.05;;;27.65;;
7110;SDS011;3597;42.650;23.386;2024-03-02T03:44:11;68.40;;;24.80;;
7110;SDS011;3597;42.650;23.386;2024-03-02T03:46:36;141.63;;;33.15;;
7110;SDS011;3597;42.650;23.386;2024-03-02T03:49:02;58.08;;;28.52;;
7110;SDS011;3597;42.650;23.386;2024-03-02T03:51:29;83.72;;;30.48;;
7110;SDS011;3597;42.650;23.386;2024-03-02T03:53:55;156.60;;;38.90;;
7110;SDS011;3597;42.650;23.386;2024-03-02T03:56:21;135.52;;;34.55;;
7110;SDS011;3597;42.650;23.386;2024-03-02T03:58:47;141.35;;;34.42;;
7110;SDS011;3597;42.650;23.386;2024-03-02T04:01:12;183.93;;;43.95;;
7110;SDS011;3597;42.650;23.386;2024-03-02T04:03:38;88.63;;;29.60;;
7110;SDS011;3597;42.650;23.386;2024-03-02T04:06:04;385.08;;;58.70;;
7110;SDS011;3597;42.650;23.386;2024-03-02T04:08:29;209.55;;;39.78;;
7110;SDS011;3597;42.650;23.386;2024-03-02T04:10:55;139.50;;;32.58;;
7110;SDS011;3597;42.650;23.386;2024-03-02T04:13:21;215.70;;;36.38;;
7110;SDS011;3597;42.650;23.386;2024-03-02T04:15:46;219.88;;;44.72;;
7110;SDS011;3597;42.650;23.386;2024-03-02T04:18:12;166.35;;;34.63;;
7110;SDS011;3597;42.650;23.386;2024-03-02T04:20:38;143.30;;;32.90;;
7110;SDS011;3597;42.650;23.386;2024-03-02T04:23:04;86.57;;;26.95;;
7110;SDS011;3597;42.650;23.386;2024-03-02T04:25:29;102.22;;;28.70;;
7110;SDS011;3597;42.650;23.386;2024-03-02T04:27:55;153.98;;;32.33;;
7110;SDS011;3597;42.650;23.386;2024-03-02T04:30:20;89.55;;;26.73;;
7110;SDS011;3597;42.650;23.386;2024-03-02T04:32:46;64.47;;;25.88;;
7110;SDS011;3597;42.650;23.386;2024-03-02T04:35:12;124.45;;;31.77;;
7110;SDS011;3597;42.650;23.386;2024-03-02T04:37:38;62.83;;;24.02;;
7110;SDS011;3597;42.650;23.386;2024-03-02T04:40:04;117.32;;;28.05;;
7110;SDS011;3597;42.650;23.386;2024-03-02T04:42:33;176.45;;;42.55;;
7110;SDS011;3597;42.650;23.386;2024-03-02T04:44:59;95.20;;;27.73;;
7110;SDS011;3597;42.650;23.386;2024-03-02T04:47:25;103.25;;;28.98;;
7110;SDS011;3597;42.650;23.386;2024-03-02T04:49:50;118.03;;;32.28;;
7110;SDS011;3597;42.650;23.386;2024-03-02T04:52:16;106.05;;;30.23;;
7110;SDS011;3597;42.650;23.386;2024-03-02T04:54:42;179.70;;;37.72;;
7110;SDS011;3597;42.650;23.386;2024-03-02T04:57:27;195.75;;;40.50;;
7110;SDS011;3597;42.650;23.386;2024-03-02T04:59:52;62.97;;;26.15;;
7110;SDS011;3597;42.650;23.386;2024-03-02T05:02:18;140.68;;;32.75;;
7110;SDS011;3597;42.650;23.386;2024-03-02T05:04:44;85.13;;;26.10;;
7110;SDS011;3597;42.650;23.386;2024-03-02T05:07:09;100.60;;;30.95;;
7110;SDS011;3597;42.650;23.386;2024-03-02T05:09:35;128.13;;;34.75;;
7110;SDS011;3597;42.650;23.386;2024-03-02T05:12:01;94.55;;;30.85;;
7110;SDS011;3597;42.650;23.386;2024-03-02T05:14:55;58.92;;;26.27;;
7110;SDS011;3597;42.650;23.386;2024-03-02T05:17:21;150.02;;;36.47;;
7110;SDS011;3597;42.650;23.386;2024-03-02T05:19:46;74.43;;;28.73;;
7110;SDS011;3597;42.650;23.386;2024-03-02T05:22:12;174.05;;;35.38;;
7110;SDS011;3597;42.650;23.386;2024-03-02T05:24:38;64.70;;;26.83;;
7110;SDS011;3597;42.650;23.386;2024-03-02T05:27:03;47.92;;;24.05;;
7110;SDS011;3597;42.650;23.386;2024-03-02T05:29:29;61.25;;;28.60;;
7110;SDS011;3597;42.650;23.386;2024-03-02T05:31:55;109.65;;;29.58;;
7110;SDS011;3597;42.650;23.386;2024-03-02T05:34:20;85.43;;;26.08;;
7110;SDS011;3597;42.650;23.386;2024-03-02T05:36:46;65.65;;;26.50;;
7110;SDS011;3597;42.650;23.386;2024-03-02T05:39:12;88.80;;;28.65;;
7110;SDS011;3597;42.650;23.386;2024-03-02T05:41:37;68.90;;;28.17;;
7110;SDS011;3597;42.650;23.386;2024-03-02T05:44:03;61.65;;;26.80;;
7110;SDS011;3597;42.650;23.386;2024-03-02T05:46:29;96.03;;;30.40;;
7110;SDS011;3597;42.650;23.386;2024-03-02T05:48:55;88.95;;;30.90;;
7110;SDS011;3597;42.650;23.386;2024-03-02T05:51:20;84.43;;;28.67;;
7110;SDS011;3597;42.650;23.386;2024-03-02T05:53:46;64.25;;;22.48;;
7110;SDS011;3597;42.650;23.386;2024-03-02T05:56:12;127.60;;;31.25;;
7110;SDS011;3597;42.650;23.386;2024-03-02T05:58:38;71.53;;;26.05;;
7110;SDS011;3597;42.650;23.386;2024-03-02T06:01:22;59.40;;;27.17;;
7110;SDS011;3597;42.650;23.386;2024-03-02T06:03:54;42.58;;;25.08;;
7110;SDS011;3597;42.650;23.386;2024-03-02T06:06:20;70.38;;;27.05;;
7110;SDS011;3597;42.650;23.386;2024-03-02T06:08:46;51.47;;;23.98;;
7110;SDS011;3597;42.650;23.386;2024-03-02T06:11:12;153.48;;;34.58;;
7110;SDS011;3597;42.650;23.386;2024-03-02T06:13:38;50.83;;;23.50;;
7110;SDS011;3597;42.650;23.386;2024-03-02T06:16:03;93.15;;;31.00;;
7110;SDS011;3597;42.650;23.386;2024-03-02T06:18:29;62.10;;;29.50;;
7110;SDS011;3597;42.650;23.386;2024-03-02T06:20:55;80.10;;;31.60;;
7110;SDS011;3597;42.650;23.386;2024-03-02T06:23:20;62.13;;;24.08;;
7110;SDS011;3597;42.650;23.386;2024-03-02T06:25:46;73.35;;;27.13;;
7110;SDS011;3597;42.650;23.386;2024-03-02T06:28:11;66.75;;;24.20;;
7110;SDS011;3597;42.650;23.386;2024-03-02T06:30:37;40.65;;;22.25;;
7110;SDS011;3597;42.650;23.386;2024-03-02T06:33:03;70.57;;;23.70;;
7110;SDS011;3597;42.650;23.386;2024-03-02T06:35:29;52.65;;;21.77;;
7110;SDS011;3597;42.650;23.386;2024-03-02T06:37:54;76.95;;;23.67;;
7110;SDS011;3597;42.650;23.386;2024-03-02T06:40:20;35.90;;;24.08;;
7110;SDS011;3597;42.650;23.386;2024-03-02T06:42:47;72.68;;;25.38;;
7110;SDS011;3597;42.650;23.386;2024-03-02T06:45:12;49.78;;;24.65;;
7110;SDS011;3597;42.650;23.386;2024-03-02T06:47:38;58.65;;;21.98;;
7110;SDS011;3597;42.650;23.386;2024-03-02T06:50:03;66.30;;;24.70;;
7110;SDS011;3597;42.650;23.386;2024-03-02T06:52:29;45.95;;;21.13;;
7110;SDS011;3597;42.650;23.386;2024-03-02T06:54:55;73.05;;;23.90;;
7110;SDS011;3597;42.650;23.386;2024-03-02T06:57:20;57.25;;;21.00;;
7110;SDS011;3597;42.650;23.386;2024-03-02T06:59:46;46.72;;;21.42;;
7110;SDS011;3597;42.650;23.386;2024-03-02T07:02:13;89.70;;;26.38;;
7110;SDS011;3597;42.650;23.386;2024-03-02T07:04:39;53.65;;;22.50;;
7110;SDS011;3597;42.650;23.386;2024-03-02T07:07:05;52.90;;;22.35;;
7110;SDS011;3597;42.650;23.386;2024-03-02T07:09:30;37.85;;;21.25;;
7110;SDS011;3597;42.650;23.386;2024-03-02T07:11:56;41.50;;;22.73;;
7110;SDS011;3597;42.650;23.386;2024-03-02T07:14:21;37.80;;;19.52;;
7110;SDS011;3597;42.650;23.386;2024-03-02T07:17:02;40.05;;;22.33;;
7110;SDS011;3597;42.650;23.386;2024-03-02T07:19:28;42.58;;;20.63;;
7110;SDS011;3597;42.650;23.386;2024-03-02T07:21:54;30.58;;;17.92;;
7110;SDS011;3597;42.650;23.386;2024-03-02T07:24:19;28.17;;;18.55;;
7110;SDS011;3597;42.650;23.386;2024-03-02T07:26:45;32.50;;;17.67;;
7110;SDS011;3597;42.650;23.386;2024-03-02T07:29:11;42.05;;;20.05;;
7110;SDS011;3597;42.650;23.386;2024-03-02T07:31:36;34.15;;;19.20;;
7110;SDS011;3597;42.650;23.386;2024-03-02T07:34:02;52.70;;;20.45;;
7110;SDS011;3597;42.650;23.386;2024-03-02T07:36:28;44.70;;;26.58;;
7110;SDS011;3597;42.650;23.386;2024-03-02T07:38:54;62.45;;;30.73;;
7110;SDS011;3597;42.650;23.386;2024-03-02T07:41:19;72.38;;;35.05;;
7110;SDS011;3597;42.650;23.386;2024-03-02T07:43:45;80.55;;;29.90;;
7110;SDS011;3597;42.650;23.386;2024-03-02T07:46:11;48.47;;;23.77;;
7110;SDS011;3597;42.650;23.386;2024-03-02T07:48:37;83.95;;;24.38;;
7110;SDS011;3597;42.650;23.386;2024-03-02T07:51:03;73.85;;;32.03;;
7110;SDS011;3597;42.650;23.386;2024-03-02T07:53:28;101.63;;;32.08;;
7110;SDS011;3597;42.650;23.386;2024-03-02T07:55:54;61.03;;;32.22;;
7110;SDS011;3597;42.650;23.386;2024-03-02T07:58:22;83.95;;;30.55;;
7110;SDS011;3597;42.650;23.386;2024-03-02T08:00:47;60.88;;;22.52;;
7110;SDS011;3597;42.650;23.386;2024-03-02T08:03:13;50.83;;;27.45;;
7110;SDS011;3597;42.650;23.386;2024-03-02T08:05:40;56.83;;;25.40;;
7110;SDS011;3597;42.650;23.386;2024-03-02T08:08:05;57.92;;;27.23;;
7110;SDS011;3597;42.650;23.386;2024-03-02T08:10:31;60.22;;;26.30;;
7110;SDS011;3597;42.650;23.386;2024-03-02T08:12:57;97.05;;;31.83;;
7110;SDS011;3597;42.650;23.386;2024-03-02T08:15:22;179.23;;;67.63;;
7110;SDS011;3597;42.650;23.386;2024-03-02T08:17:48;52.38;;;26.40;;
7110;SDS011;3597;42.650;23.386;2024-03-02T08:20:14;48.58;;;27.75;;
7110;SDS011;3597;42.650;23.386;2024-03-02T08:22:40;71.82;;;33.17;;
7110;SDS011;3597;42.650;23.386;2024-03-02T08:25:06;47.88;;;28.05;;
7110;SDS011;3597;42.650;23.386;2024-03-02T08:27:33;35.85;;;26.48;;
7110;SDS011;3597;42.650;23.386;2024-03-02T08:29:59;49.63;;;33.63;;
7110;SDS011;3597;42.650;23.386;2024-03-02T08:32:24;56.83;;;39.25;;
7110;SDS011;3597;42.650;23.386;2024-03-02T08:34:50;23.25;;;17.13;;
7110;SDS011;3597;42.650;23.386;2024-03-02T08:37:15;59.75;;;36.33;;
7110;SDS011;3597;42.650;23.386;2024-03-02T08:39:41;63.55;;;36.83;;
7110;SDS011;3597;42.650;23.386;2024-03-02T08:42:07;89.82;;;55.60;;
7110;SDS011;3597;42.650;23.386;2024-03-02T08:44:32;106.72;;;70.60;;
7110;SDS011;3597;42.650;23.386;2024-03-02T08:46:58;78.35;;;51.17;;
7110;SDS011;3597;42.650;23.386;2024-03-02T08:49:24;57.13;;;36.88;;
7110;SDS011;3597;42.650;23.386;2024-03-02T08:51:50;43.22;;;23.45;;
7110;SDS011;3597;42.650;23.386;2024-03-02T08:54:22;41.70;;;28.23;;
7110;SDS011;3597;42.650;23.386;2024-03-02T08:56:48;36.25;;;25.25;;
7110;SDS011;3597;42.650;23.386;2024-03-02T08:59:15;36.03;;;22.10;;
7110;SDS011;3597;42.650;23.386;2024-03-02T09:01:41;19.27;;;15.38;;
7110;SDS011;3597;42.650;23.386;2024-03-02T09:04:07;21.15;;;15.60;;
7110;SDS011;3597;42.650;23.386;2024-03-02T09:06:35;51.15;;;35.83;;
7110;SDS011;3597;42.650;23.386;2024-03-02T09:09:01;58.55;;;39.13;;
7110;SDS011;3597;42.650;23.386;2024-03-02T09:11:27;65.10;;;44.15;;
7110;SDS011;3597;42.650;23.386;2024-03-02T09:13:53;23.85;;;17.63;;
7110;SDS011;3597;42.650;23.386;2024-03-02T09:16:21;50.22;;;34.67;;
7110;SDS011;3597;42.650;23.386;2024-03-02T09:18:46;125.85;;;75.05;;
7110;SDS011;3597;42.650;23.386;2024-03-02T09:21:12;116.10;;;68.72;;
7110;SDS011;3597;42.650;23.386;2024-03-02T09:23:37;67.35;;;43.08;;
7110;SDS011;3597;42.650;23.386;2024-03-02T09:26:05;92.70;;;53.70;;
7110;SDS011;3597;42.650;23.386;2024-03-02T09:28:30;20.35;;;15.27;;
7110;SDS011;3597;42.650;23.386;2024-03-02T09:30:56;40.15;;;27.38;;
7110;SDS011;3597;42.650;23.386;2024-03-02T09:33:21;48.53;;;36.60;;
7110;SDS011;3597;42.650;23.386;2024-03-02T09:35:47;27.70;;;23.63;;
7110;SDS011;3597;42.650;23.386;2024-03-02T09:38:13;33.20;;;23.58;;
7110;SDS011;3597;42.650;23.386;2024-03-02T09:40:40;23.13;;;19.55;;
7110;SDS011;3597;42.650;23.386;2024-03-02T09:43:07;19.20;;;13.27;;
7110;SDS011;3597;42.650;23.386;2024-03-02T09:45:32;17.00;;;13.07;;
7110;SDS011;3597;42.650;23.386;2024-03-02T09:47:58;16.77;;;13.93;;
7110;SDS011;3597;42.650;23.386;2024-03-02T09:50:25;16.67;;;13.48;;
7110;SDS011;3597;42.650;23.386;2024-03-02T09:52:50;15.38;;;11.13;;
7110;SDS011;3597;42.650;23.386;2024-03-02T09:55:18;15.18;;;11.98;;
7110;SDS011;3597;42.650;23.386;2024-03-02T09:57:45;18.55;;;12.93;;
7110;SDS011;3597;42.650;23.386;2024-03-02T10:00:11;12.93;;;10.75;;
7110;SDS011;3597;42.650;23.386;2024-03-02T10:02:43;14.82;;;10.63;;
7110;SDS011;3597;42.650;23.386;2024-03-02T10:05:09;16.33;;;11.55;;
7110;SDS011;3597;42.650;23.386;2024-03-02T10:07:35;16.75;;;13.32;;
7110;SDS011;3597;42.650;23.386;2024-03-02T10:10:12;15.02;;;11.88;;
7110;SDS011;3597;42.650;23.386;2024-03-02T10:12:39;17.05;;;11.27;;
7110;SDS011;3597;42.650;23.386;2024-03-02T10:15:04;15.85;;;12.38;;
7110;SDS011;3597;42.650;23.386;2024-03-02T10:17:31;14.13;;;11.23;;
7110;SDS011;3597;42.650;23.386;2024-03-02T10:19:56;11.77;;;9.10;;
7110;SDS011;3597;42.650;23.386;2024-03-02T10:22:22;10.48;;;9.35;;
7110;SDS011;3597;42.650;23.386;2024-03-02T10:24:48;13.75;;;10.93;;
7110;SDS011;3597;42.650;23.386;2024-03-02T10:27:17;13.88;;;9.73;;
7110;SDS011;3597;42.650;23.386;2024-03-02T10:29:48;10.25;;;9.13;;
7110;SDS011;3597;42.650;23.386;2024-03-02T10:32:15;12.80;;;9.52;;
7110;SDS011;3597;42.650;23.386;2024-03-02T10:34:41;13.48;;;10.52;;
7110;SDS011;3597;42.650;23.386;2024-03-02T10:37:10;11.05;;;9.25;;
7110;SDS011;3597;42.650;23.386;2024-03-02T10:39:36;14.98;;;10.63;;
7110;SDS011;3597;42.650;23.386;2024-03-02T10:42:04;16.67;;;11.40;;
7110;SDS011;3597;42.650;23.386;2024-03-02T10:44:31;13.27;;;9.05;;
7110;SDS011;3597;42.650;23.386;2024-03-02T10:47:01;13.68;;;10.00;;
7110;SDS011;3597;42.650;23.386;2024-03-02T10:49:31;14.25;;;10.93;;
7110;SDS011;3597;42.650;23.386;2024-03-02T10:51:58;12.85;;;10.02;;
7110;SDS011;3597;42.650;23.386;2024-03-02T10:54:24;13.05;;;9.80;;
7110;SDS011;3597;42.650;23.386;2024-03-02T10:56:52;11.85;;;10.45;;
7110;SDS011;3597;42.650;23.386;2024-03-02T11:01:52;13.70;;;10.80;;
7110;SDS011;3597;42.650;23.386;2024-03-02T11:04:26;11.48;;;8.45;;
7110;SDS011;3597;42.650;23.386;2024-03-02T11:06:54;13.45;;;10.38;;
7110;SDS011;3597;42.650;23.386;2024-03-02T11:09:26;14.43;;;11.50;;
7110;SDS011;3597;42.650;23.386;2024-03-02T11:11:58;15.77;;;12.68;;
7110;SDS011;3597;42.650;23.386;2024-03-02T11:14:32;12.68;;;10.82;;
7110;SDS011;3597;42.650;23.386;2024-03-02T11:16:58;14.00;;;12.02;;
7110;SDS011;3597;42.650;23.386;2024-03-02T11:19:27;14.93;;;11.50;;
7110;SDS011;3597;42.650;23.386;2024-03-02T11:21:53;16.35;;;11.10;;
7110;SDS011;3597;42.650;23.386;2024-03-02T11:26:52;15.13;;;13.45;;
7110;SDS011;3597;42.650;23.386;2024-03-02T11:32:02;15.20;;;11.30;;
7110;SDS011;3597;42.650;23.386;2024-03-02T11:34:29;17.60;;;12.27;;
7110;SDS011;3597;42.650;23.386;2024-03-02T11:36:56;14.02;;;11.20;;
7110;SDS011;3597;42.650;23.386;2024-03-02T11:39:31;16.55;;;12.50;;
7110;SDS011;3597;42.650;23.386;2024-03-02T11:41:57;15.90;;;11.77;;
7110;SDS011;3597;42.650;23.386;2024-03-02T11:44:27;17.88;;;12.10;;
7110;SDS011;3597;42.650;23.386;2024-03-02T11:47:02;17.30;;;13.15;;
7110;SDS011;3597;42.650;23.386;2024-03-02T11:49:44;19.77;;;13.57;;
7110;SDS011;3597;42.650;23.386;2024-03-02T11:52:11;16.85;;;11.77;;
7110;SDS011;3597;42.650;23.386;2024-03-02T11:54:43;27.35;;;12.80;;
7110;SDS011;3597;42.650;23.386;2024-03-02T11:57:14;18.98;;;12.55;;
7110;SDS011;3597;42.650;23.386;2024-03-02T11:59:42;18.52;;;14.45;;
7110;SDS011;3597;42.650;23.386;2024-03-02T12:02:12;17.75;;;13.95;;
7110;SDS011;3597;42.650;23.386;2024-03-02T12:04:42;23.98;;;14.05;;
7110;SDS011;3597;42.650;23.386;2024-03-02T12:07:08;17.70;;;13.13;;
7110;SDS011;3597;42.650;23.386;2024-03-02T12:09:34;18.50;;;12.45;;
7110;SDS011;3597;42.650;23.386;2024-03-02T12:12:07;48.53;;;31.63;;
7110;SDS011;3597;42.650;23.386;2024-03-02T12:14:34;28.98;;;19.65;;
7110;SDS011;3597;42.650;23.386;2024-03-02T12:17:01;20.90;;;14.55;;
7110;SDS011;3597;42.650;23.386;2024-03-02T12:19:27;48.28;;;18.55;;
7110;SDS011;3597;42.650;23.386;2024-03-02T12:21:57;42.58;;;18.35;;
7110;SDS011;3597;42.650;23.386;2024-03-02T12:24:24;91.47;;;30.27;;
7110;SDS011;3597;42.650;23.386;2024-03-02T12:26:51;125.70;;;26.52;;
7110;SDS011;3597;42.650;23.386;2024-03-02T12:29:19;68.95;;;23.80;;
7110;SDS011;3597;42.650;23.386;2024-03-02T12:31:47;85.47;;;35.38;;
7110;SDS011;3597;42.650;23.386;2024-03-02T12:34:14;31.67;;;18.52;;
7110;SDS011;3597;42.650;23.386;2024-03-02T12:36:41;28.67;;;12.27;;
7110;SDS011;3597;42.650;23.386;2024-03-02T12:39:09;36.75;;;24.35;;
7110;SDS011;3597;42.650;23.386;2024-03-02T12:41:36;15.70;;;11.38;;
7110;SDS011;3597;42.650;23.386;2024-03-02T12:44:03;20.25;;;15.02;;
7110;SDS011;3597;42.650;23.386;2024-03-02T12:46:29;20.80;;;15.15;;
7110;SDS011;3597;42.650;23.386;2024-03-02T12:48:56;10.45;;;8.60;;
7110;SDS011;3597;42.650;23.386;2024-03-02T12:51:21;10.13;;;8.68;;
7110;SDS011;3597;42.650;23.386;2024-03-02T12:53:53;14.65;;;10.05;;
7110;SDS011;3597;42.650;23.386;2024-03-02T12:56:20;9.93;;;7.03;;
7110;SDS011;3597;42.650;23.386;2024-03-02T12:58:46;7.30;;;5.93;;
7110;SDS011;3597;42.650;23.386;2024-03-02T13:01:14;7.80;;;6.60;;
7110;SDS011;3597;42.650;23.386;2024-03-02T13:03:40;7.10;;;6.40;;
7110;SDS011;3597;42.650;23.386;2024-03-02T13:06:06;10.02;;;8.52;;
7110;SDS011;3597;42.650;23.386;2024-03-02T13:08:33;7.85;;;6.32;;
7110;SDS011;3597;42.650;23.386;2024-03-02T13:11:00;5.53;;;5.03;;
7110;SDS011;3597;42.650;23.386;2024-03-02T13:13:26;6.85;;;4.75;;
7110;SDS011;3597;42.650;23.386;2024-03-02T13:15:55;5.50;;;5.00;;
7110;SDS011;3597;42.650;23.386;2024-03-02T13:18:21;7.35;;;6.30;;
7110;SDS011;3597;42.650;23.386;2024-03-02T13:20:47;6.72;;;5.40;;
7110;SDS011;3597;42.650;23.386;2024-03-02T13:23:12;5.60;;;5.10;;
7110;SDS011;3597;42.650;23.386;2024-03-02T13:25:38;12.07;;;8.13;;
7110;SDS011;3597;42.650;23.386;2024-03-02T13:28:04;9.07;;;6.88;;
7110;SDS011;3597;42.650;23.386;2024-03-02T13:30:29;8.68;;;6.32;;
7110;SDS011;3597;42.650;23.386;2024-03-02T13:32:55;5.72;;;5.13;;
7110;SDS011;3597;42.650;23.386;2024-03-02T13:35:21;26.83;;;17.52;;
7110;SDS011;3597;42.650;23.386;2024-03-02T13:37:46;15.98;;;12.98;;
7110;SDS011;3597;42.650;23.386;2024-03-02T13:40:12;6.35;;;5.50;;
7110;SDS011;3597;42.650;23.386;2024-03-02T13:42:42;5.70;;;5.03;;
7110;SDS011;3597;42.650;23.386;2024-03-02T13:45:09;11.07;;;9.98;;
7110;SDS011;3597;42.650;23.386;2024-03-02T13:47:35;11.82;;;10.57;;
7110;SDS011;3597;42.650;23.386;2024-03-02T13:50:01;9.18;;;8.38;;
7110;SDS011;3597;42.650;23.386;2024-03-02T13:52:27;27.52;;;24.33;;
7110;SDS011;3597;42.650;23.386;2024-03-02T13:54:53;12.85;;;11.65;;
7110;SDS011;3597;42.650;23.386;2024-03-02T13:57:18;10.15;;;9.15;;
7110;SDS011;3597;42.650;23.386;2024-03-02T13:59:45;18.00;;;15.40;;
7110;SDS011;3597;42.650;23.386;2024-03-02T14:02:11;12.20;;;10.93;;
7110;SDS011;3597;42.650;23.386;2024-03-02T14:04:37;12.93;;;9.77;;
7110;SDS011;3597;42.650;23.386;2024-03-02T14:07:04;9.02;;;6.97;;
7110;SDS011;3597;42.650;23.386;2024-03-02T14:09:33;7.43;;;6.28;;
7110;SDS011;3597;42.650;23.386;2024-03-02T14:11:59;8.63;;;7.45;;
7110;SDS011;3597;42.650;23.386;2024-03-02T14:14:30;12.90;;;9.63;;
7110;SDS011;3597;42.650;23.386;2024-03-02T14:16:56;21.05;;;18.13;;
7110;SDS011;3597;42.650;23.386;2024-03-02T14:19:25;23.08;;;18.33;;
7110;SDS011;3597;42.650;23.386;2024-03-02T14:21:51;20.35;;;15.57;;
7110;SDS011;3597;42.650;23.386;2024-03-02T14:24:16;27.40;;;21.67;;
7110;SDS011;3597;42.650;23.386;2024-03-02T14:26:42;22.40;;;17.60;;
7110;SDS011;3597;42.650;23.386;2024-03-02T14:29:07;26.63;;;17.65;;
7110;SDS011;3597;42.650;23.386;2024-03-02T14:31:33;19.35;;;15.73;;
7110;SDS011;3597;42.650;23.386;2024-03-02T14:33:59;22.73;;;16.13;;
7110;SDS011;3597;42.650;23.386;2024-03-02T14:36:25;24.05;;;14.98;;
7110;SDS011;3597;42.650;23.386;2024-03-02T14:38:52;23.20;;;16.33;;
7110;SDS011;3597;42.650;23.386;2024-03-02T14:41:18;21.33;;;17.38;;